sensor_id;sensor_type;location;lat;lon;timestamp;P1;durP1;ratioP1;P2;durP2;ratioP2
12511;SDS011;6321;53.798;10.382;2023-03-25T00:01:06;7.20;;;3.30;;
12511;SDS011;6321;53.798;10.382;2023-03-25T00:03:33;6.53;;;3.33;;
12511;SDS011;6321;53.798;10.382;2023-03-25T00:06:01;5.17;;;3.67;;
12511;SDS011;6321;53.798;10.382;2023-03-25T00:08:29;6.97;;;3.57;;
12511;SDS011;6321;53.798;10.382;2023-03-25T00:10:57;7.30;;;3.27;;
12511;SDS011;6321;53.798;10.382;2023-03-25T00:13:23;5.63;;;3.63;;
12511;SDS011;6321;53.798;10.382;2023-03-25T00:15:50;9.13;;;3.67;;
12511;SDS011;6321;53.798;10.382;2023-03-25T00:18:17;6.37;;;4.17;;
12511;SDS011;6321;53.798;10.382;2023-03-25T00:20:44;4.97;;;3.63;;
12511;SDS011;6321;53.798;10.382;2023-03-25T00:23:13;7.10;;;4.07;;
12511;SDS011;6321;53.798;10.382;2023-03-25T00:25:39;6.87;;;4.47;;
12511;SDS011;6321;53.798;10.382;2023-03-25T00:28:06;6.43;;;4.33;;
12511;SDS011;6321;53.798;10.382;2023-03-25T00:30:32;5.93;;;4.40;;
12511;SDS011;6321;53.798;10.382;2023-03-25T00:32:58;6.70;;;4.40;;
12511;SDS011;6321;53.798;10.382;2023-03-25T00:35:25;6.47;;;5.10;;
12511;SDS011;6321;53.798;10.382;2023-03-25T00:37:52;6.50;;;5.07;;
12511;SDS011;6321;53.798;10.382;2023-03-25T00:40:28;7.83;;;4.73;;
12511;SDS011;6321;53.798;10.382;2023-03-25T00:42:54;6.03;;;4.67;;
12511;SDS011;6321;53.798;10.382;2023-03-25T00:45:20;5.67;;;4.80;;
12511;SDS011;6321;53.798;10.382;2023-03-25T00:47:46;11.50;;;5.73;;
12511;SDS011;6321;53.798;10.382;2023-03-25T00:50:12;9.73;;;5.50;;
12511;SDS011;6321;53.798;10.382;2023-03-25T00:52:38;6.77;;;4.97;;
12511;SDS011;6321;53.798;10.382;2023-03-25T00:55:05;10.27;;;5.80;;
12511;SDS011;6321;53.798;10.382;2023-03-25T00:57:31;9.83;;;5.47;;
12511;SDS011;6321;53.798;10.382;2023-03-25T00:59:57;7.80;;;5.27;;
12511;SDS011;6321;53.798;10.382;2023-03-25T01:02:23;9.67;;;5.83;;
12511;SDS011;6321;53.798;10.382;2023-03-25T01:04:49;10.20;;;5.53;;
12511;SDS011;6321;53.798;10.382;2023-03-25T01:07:18;9.50;;;5.63;;
12511;SDS011;6321;53.798;10.382;2023-03-25T01:09:45;8.97;;;5.73;;
12511;SDS011;6321;53.798;10.382;2023-03-25T01:12:11;8.27;;;5.50;;
12511;SDS011;6321;53.798;10.382;2023-03-25T01:14:37;11.47;;;5.70;;
12511;SDS011;6321;53.798;10.382;2023-03-25T01:17:03;9.20;;;5.40;;
12511;SDS011;6321;53.798;10.382;2023-03-25T01:19:29;11.93;;;5.97;;
12511;SDS011;6321;53.798;10.382;2023-03-25T01:21:55;10.47;;;6.40;;
12511;SDS011;6321;53.798;10.382;2023-03-25T01:24:21;7.80;;;6.47;;
12511;SDS011;6321;53.798;10.382;2023-03-25T01:26:48;8.40;;;6.03;;
12511;SDS011;6321;53.798;10.382;2023-03-25T01:29:15;11.70;;;7.00;;
12511;SDS011;6321;53.798;10.382;2023-03-25T01:31:41;12.00;;;6.13;;
12511;SDS011;6321;53.798;10.382;2023-03-25T01:34:07;11.57;;;6.30;;
12511;SDS011;6321;53.798;10.382;2023-03-25T01:36:33;9.67;;;6.27;;
12511;SDS011;6321;53.798;10.382;2023-03-25T01:39:01;12.67;;;7.43;;
12511;SDS011;6321;53.798;10.382;2023-03-25T01:41:29;10.20;;;7.17;;
12511;SDS011;6321;53.798;10.382;2023-03-25T01:43:59;8.43;;;6.10;;
12511;SDS011;6321;53.798;10.382;2023-03-25T01:46:26;9.90;;;6.47;;
12511;SDS011;6321;53.798;10.382;2023-03-25T01:48:52;9.00;;;6.50;;
12511;SDS011;6321;53.798;10.382;2023-03-25T01:51:19;9.87;;;6.33;;
12511;SDS011;6321;53.798;10.382;2023-03-25T01:53:46;7.50;;;6.07;;
12511;SDS011;6321;53.798;10.382;2023-03-25T01:56:12;8.57;;;6.00;;
12511;SDS011;6321;53.798;10.382;2023-03-25T01:58:40;12.43;;;6.70;;
12511;SDS011;6321;53.798;10.382;2023-03-25T02:01:07;13.80;;;6.77;;
12511;SDS011;6321;53.798;10.382;2023-03-25T02:03:37;9.63;;;5.93;;
12511;SDS011;6321;53.798;10.382;2023-03-25T02:06:08;9.87;;;5.80;;
12511;SDS011;6321;53.798;10.382;2023-03-25T02:08:36;10.80;;;5.83;;
12511;SDS011;6321;53.798;10.382;2023-03-25T02:11:04;10.60;;;5.43;;
12511;SDS011;6321;53.798;10.382;2023-03-25T02:13:30;10.40;;;5.63;;
12511;SDS011;6321;53.798;10.382;2023-03-25T02:33:57;11.20;;;5.50;;
12511;SDS011;6321;53.798;10.382;2023-03-25T02:39:17;13.73;;;5.07;;
12511;SDS011;6321;53.798;10.382;2023-03-25T02:46:37;8.63;;;4.93;;
12511;SDS011;6321;53.798;10.382;2023-03-25T02:51:53;9.77;;;5.53;;
12511;SDS011;6321;53.798;10.382;2023-03-25T02:54:18;8.17;;;5.23;;
12511;SDS011;6321;53.798;10.382;2023-03-25T02:56:46;11.00;;;5.17;;
12511;SDS011;6321;53.798;10.382;2023-03-25T02:59:14;7.53;;;4.97;;
12511;SDS011;6321;53.798;10.382;2023-03-25T03:01:41;9.87;;;5.30;;
12511;SDS011;6321;53.798;10.382;2023-03-25T03:04:08;10.77;;;4.87;;
12511;SDS011;6321;53.798;10.382;2023-03-25T03:06:35;8.33;;;5.50;;
12511;SDS011;6321;53.798;10.382;2023-03-25T03:09:12;8.97;;;5.53;;
12511;SDS011;6321;53.798;10.382;2023-03-25T03:11:47;8.13;;;5.40;;
12511;SDS011;6321;53.798;10.382;2023-03-25T03:14:27;9.80;;;5.23;;
12511;SDS011;6321;53.798;10.382;2023-03-25T03:17:04;8.67;;;5.07;;
12511;SDS011;6321;53.798;10.382;2023-03-25T03:19:37;8.80;;;5.37;;
12511;SDS011;6321;53.798;10.382;2023-03-25T03:22:15;7.77;;;5.33;;
12511;SDS011;6321;53.798;10.382;2023-03-25T03:24:43;12.00;;;5.73;;
12511;SDS011;6321;53.798;10.382;2023-03-25T03:27:13;9.37;;;5.20;;
12511;SDS011;6321;53.798;10.382;2023-03-25T03:29:44;7.87;;;5.57;;
12511;SDS011;6321;53.798;10.382;2023-03-25T03:32:19;8.77;;;5.30;;
12511;SDS011;6321;53.798;10.382;2023-03-25T03:34:48;10.53;;;5.23;;
12511;SDS011;6321;53.798;10.382;2023-03-25T03:37:17;8.23;;;5.77;;
12511;SDS011;6321;53.798;10.382;2023-03-25T03:39:46;7.90;;;5.10;;
12511;SDS011;6321;53.798;10.382;2023-03-25T03:42:15;8.83;;;5.00;;
12511;SDS011;6321;53.798;10.382;2023-03-25T03:44:43;8.07;;;5.10;;
12511;SDS011;6321;53.798;10.382;2023-03-25T03:47:12;6.87;;;4.47;;
12511;SDS011;6321;53.798;10.382;2023-03-25T03:49:41;13.73;;;5.67;;
12511;SDS011;6321;53.798;10.382;2023-03-25T03:52:12;9.73;;;5.43;;
12511;SDS011;6321;53.798;10.382;2023-03-25T03:54:42;8.13;;;5.57;;
12511;SDS011;6321;53.798;10.382;2023-03-25T03:57:12;9.73;;;5.77;;
12511;SDS011;6321;53.798;10.382;2023-03-25T03:59:47;9.17;;;5.30;;
12511;SDS011;6321;53.798;10.382;2023-03-25T04:04:51;9.93;;;6.30;;
12511;SDS011;6321;53.798;10.382;2023-03-25T04:07:18;11.93;;;6.03;;
12511;SDS011;6321;53.798;10.382;2023-03-25T04:09:53;10.03;;;5.27;;
12511;SDS011;6321;53.798;10.382;2023-03-25T04:14:47;9.77;;;5.50;;
12511;SDS011;6321;53.798;10.382;2023-03-25T04:17:13;9.47;;;5.70;;
12511;SDS011;6321;53.798;10.382;2023-03-25T04:19:39;11.47;;;5.90;;
12511;SDS011;6321;53.798;10.382;2023-03-25T04:22:05;9.77;;;6.10;;
12511;SDS011;6321;53.798;10.382;2023-03-25T04:24:31;8.53;;;5.53;;
12511;SDS011;6321;53.798;10.382;2023-03-25T04:26:58;13.77;;;6.23;;
12511;SDS011;6321;53.798;10.382;2023-03-25T04:29:28;7.63;;;5.13;;
12511;SDS011;6321;53.798;10.382;2023-03-25T04:31:56;10.67;;;5.60;;
12511;SDS011;6321;53.798;10.382;2023-03-25T04:34:22;8.63;;;5.20;;
12511;SDS011;6321;53.798;10.382;2023-03-25T04:36:48;10.13;;;5.50;;
12511;SDS011;6321;53.798;10.382;2023-03-25T04:39:15;7.23;;;4.87;;
12511;SDS011;6321;53.798;10.382;2023-03-25T04:41:41;11.27;;;5.80;;
12511;SDS011;6321;53.798;10.382;2023-03-25T04:44:08;7.70;;;6.00;;
12511;SDS011;6321;53.798;10.382;2023-03-25T04:46:34;9.20;;;6.00;;
12511;SDS011;6321;53.798;10.382;2023-03-25T04:49:00;9.57;;;5.17;;
12511;SDS011;6321;53.798;10.382;2023-03-25T04:51:29;8.23;;;5.27;;
12511;SDS011;6321;53.798;10.382;2023-03-25T04:53:56;8.63;;;4.77;;
12511;SDS011;6321;53.798;10.382;2023-03-25T04:56:22;6.73;;;5.00;;
12511;SDS011;6321;53.798;10.382;2023-03-25T04:58:48;11.00;;;5.87;;
12511;SDS011;6321;53.798;10.382;2023-03-25T05:01:18;7.93;;;5.27;;
12511;SDS011;6321;53.798;10.382;2023-03-25T05:03:44;7.07;;;4.97;;
12511;SDS011;6321;53.798;10.382;2023-03-25T05:06:14;7.33;;;5.13;;
12511;SDS011;6321;53.798;10.382;2023-03-25T05:08:40;8.13;;;4.50;;
12511;SDS011;6321;53.798;10.382;2023-03-25T05:11:05;10.17;;;4.97;;
12511;SDS011;6321;53.798;10.382;2023-03-25T05:13:32;7.17;;;3.90;;
12511;SDS011;6321;53.798;10.382;2023-03-25T05:15:58;8.20;;;4.17;;
12511;SDS011;6321;53.798;10.382;2023-03-25T05:18:23;4.97;;;3.87;;
12511;SDS011;6321;53.798;10.382;2023-03-25T05:20:50;3.47;;;2.20;;
12511;SDS011;6321;53.798;10.382;2023-03-25T05:23:17;4.10;;;2.20;;
12511;SDS011;6321;53.798;10.382;2023-03-25T05:25:44;5.33;;;2.23;;
12511;SDS011;6321;53.798;10.382;2023-03-25T05:28:11;4.00;;;2.00;;
12511;SDS011;6321;53.798;10.382;2023-03-25T05:30:40;5.00;;;2.47;;
12511;SDS011;6321;53.798;10.382;2023-03-25T05:33:07;5.07;;;2.93;;
12511;SDS011;6321;53.798;10.382;2023-03-25T05:35:37;4.50;;;2.93;;
12511;SDS011;6321;53.798;10.382;2023-03-25T05:38:03;3.30;;;2.43;;
12511;SDS011;6321;53.798;10.382;2023-03-25T05:40:30;5.80;;;3.10;;
12511;SDS011;6321;53.798;10.382;2023-03-25T05:42:57;7.30;;;3.20;;
12511;SDS011;6321;53.798;10.382;2023-03-25T05:45:23;4.47;;;3.10;;
12511;SDS011;6321;53.798;10.382;2023-03-25T05:47:49;7.23;;;3.83;;
12511;SDS011;6321;53.798;10.382;2023-03-25T05:50:15;6.80;;;2.73;;
12511;SDS011;6321;53.798;10.382;2023-03-25T05:52:41;6.70;;;3.53;;
12511;SDS011;6321;53.798;10.382;2023-03-25T05:55:17;6.83;;;3.37;;
12511;SDS011;6321;53.798;10.382;2023-03-25T05:57:43;4.90;;;3.10;;
12511;SDS011;6321;53.798;10.382;2023-03-25T06:00:10;8.87;;;3.27;;
12511;SDS011;6321;53.798;10.382;2023-03-25T06:02:36;7.03;;;3.53;;
12511;SDS011;6321;53.798;10.382;2023-03-25T06:05:03;6.93;;;3.40;;
12511;SDS011;6321;53.798;10.382;2023-03-25T06:07:29;3.93;;;2.87;;
12511;SDS011;6321;53.798;10.382;2023-03-25T06:09:56;8.07;;;3.87;;
12511;SDS011;6321;53.798;10.382;2023-03-25T06:12:22;4.63;;;3.40;;
12511;SDS011;6321;53.798;10.382;2023-03-25T06:14:51;6.07;;;3.67;;
12511;SDS011;6321;53.798;10.382;2023-03-25T06:17:18;7.27;;;3.60;;
12511;SDS011;6321;53.798;10.382;2023-03-25T06:19:46;5.10;;;4.10;;
12511;SDS011;6321;53.798;10.382;2023-03-25T06:22:12;6.17;;;4.07;;
12511;SDS011;6321;53.798;10.382;2023-03-25T06:24:38;8.30;;;4.80;;
12511;SDS011;6321;53.798;10.382;2023-03-25T06:27:06;9.20;;;4.60;;
12511;SDS011;6321;53.798;10.382;2023-03-25T06:29:33;7.70;;;4.60;;
12511;SDS011;6321;53.798;10.382;2023-03-25T06:32:00;7.30;;;5.10;;
12511;SDS011;6321;53.798;10.382;2023-03-25T06:34:26;8.97;;;4.63;;
12511;SDS011;6321;53.798;10.382;2023-03-25T06:36:52;7.60;;;4.47;;
12511;SDS011;6321;53.798;10.382;2023-03-25T06:39:19;4.30;;;3.90;;
12511;SDS011;6321;53.798;10.382;2023-03-25T06:41:45;9.87;;;4.70;;
12511;SDS011;6321;53.798;10.382;2023-03-25T06:44:11;6.97;;;4.47;;
12511;SDS011;6321;53.798;10.382;2023-03-25T06:46:37;7.43;;;4.73;;
12511;SDS011;6321;53.798;10.382;2023-03-25T06:49:03;7.97;;;4.37;;
12511;SDS011;6321;53.798;10.382;2023-03-25T06:51:29;5.43;;;4.60;;
12511;SDS011;6321;53.798;10.382;2023-03-25T06:53:55;9.03;;;4.00;;
12511;SDS011;6321;53.798;10.382;2023-03-25T06:56:21;6.37;;;3.00;;
12511;SDS011;6321;53.798;10.382;2023-03-25T06:58:47;2.77;;;2.37;;
12511;SDS011;6321;53.798;10.382;2023-03-25T07:01:13;4.60;;;2.33;;
12511;SDS011;6321;53.798;10.382;2023-03-25T07:03:39;3.57;;;2.83;;
12511;SDS011;6321;53.798;10.382;2023-03-25T07:06:05;5.43;;;3.40;;
12511;SDS011;6321;53.798;10.382;2023-03-25T07:08:31;7.10;;;3.40;;
12511;SDS011;6321;53.798;10.382;2023-03-25T07:11:01;6.67;;;3.57;;
12511;SDS011;6321;53.798;10.382;2023-03-25T07:13:27;8.57;;;3.60;;
12511;SDS011;6321;53.798;10.382;2023-03-25T07:15:55;4.53;;;4.03;;
12511;SDS011;6321;53.798;10.382;2023-03-25T07:18:21;7.20;;;4.63;;
12511;SDS011;6321;53.798;10.382;2023-03-25T07:20:46;9.80;;;5.63;;
12511;SDS011;6321;53.798;10.382;2023-03-25T07:23:12;10.97;;;5.53;;
12511;SDS011;6321;53.798;10.382;2023-03-25T07:25:38;12.70;;;6.20;;
12511;SDS011;6321;53.798;10.382;2023-03-25T07:28:04;15.27;;;5.60;;
12511;SDS011;6321;53.798;10.382;2023-03-25T07:30:30;10.30;;;6.37;;
12511;SDS011;6321;53.798;10.382;2023-03-25T07:32:56;9.63;;;5.63;;
12511;SDS011;6321;53.798;10.382;2023-03-25T07:35:22;10.10;;;5.60;;
12511;SDS011;6321;53.798;10.382;2023-03-25T07:37:48;8.30;;;5.47;;
12511;SDS011;6321;53.798;10.382;2023-03-25T07:40:14;10.70;;;5.43;;
12511;SDS011;6321;53.798;10.382;2023-03-25T07:42:40;15.00;;;5.10;;
12511;SDS011;6321;53.798;10.382;2023-03-25T07:45:06;8.97;;;5.10;;
12511;SDS011;6321;53.798;10.382;2023-03-25T07:47:32;9.67;;;5.40;;
12511;SDS011;6321;53.798;10.382;2023-03-25T07:49:58;14.93;;;6.33;;
12511;SDS011;6321;53.798;10.382;2023-03-25T07:52:24;11.83;;;5.20;;
12511;SDS011;6321;53.798;10.382;2023-03-25T07:54:50;11.37;;;5.73;;
12511;SDS011;6321;53.798;10.382;2023-03-25T07:57:16;9.63;;;4.77;;
12511;SDS011;6321;53.798;10.382;2023-03-25T07:59:42;12.20;;;5.77;;
12511;SDS011;6321;53.798;10.382;2023-03-25T08:02:10;8.60;;;4.63;;
12511;SDS011;6321;53.798;10.382;2023-03-25T08:04:37;7.70;;;4.33;;
12511;SDS011;6321;53.798;10.382;2023-03-25T08:07:03;6.73;;;4.20;;
12511;SDS011;6321;53.798;10.382;2023-03-25T08:09:29;8.93;;;4.23;;
12511;SDS011;6321;53.798;10.382;2023-03-25T08:11:55;10.33;;;4.40;;
12511;SDS011;6321;53.798;10.382;2023-03-25T08:14:21;9.77;;;4.40;;
12511;SDS011;6321;53.798;10.382;2023-03-25T08:16:47;5.87;;;4.20;;
12511;SDS011;6321;53.798;10.382;2023-03-25T08:19:13;6.87;;;4.00;;
12511;SDS011;6321;53.798;10.382;2023-03-25T08:21:39;5.90;;;3.53;;
12511;SDS011;6321;53.798;10.382;2023-03-25T08:24:05;8.73;;;3.93;;
12511;SDS011;6321;53.798;10.382;2023-03-25T08:26:32;5.97;;;4.13;;
12511;SDS011;6321;53.798;10.382;2023-03-25T08:28:58;6.90;;;4.20;;
12511;SDS011;6321;53.798;10.382;2023-03-25T08:31:26;10.57;;;4.20;;
12511;SDS011;6321;53.798;10.382;2023-03-25T08:33:55;6.90;;;3.57;;
12511;SDS011;6321;53.798;10.382;2023-03-25T08:36:21;10.10;;;4.23;;
12511;SDS011;6321;53.798;10.382;2023-03-25T08:38:47;10.47;;;4.30;;
12511;SDS011;6321;53.798;10.382;2023-03-25T08:41:13;4.10;;;3.70;;
12511;SDS011;6321;53.798;10.382;2023-03-25T08:43:39;6.23;;;4.33;;
12511;SDS011;6321;53.798;10.382;2023-03-25T08:46:05;6.80;;;3.87;;
12511;SDS011;6321;53.798;10.382;2023-03-25T08:48:31;8.17;;;4.10;;
12511;SDS011;6321;53.798;10.382;2023-03-25T08:50:57;6.27;;;3.60;;
12511;SDS011;6321;53.798;10.382;2023-03-25T08:53:23;6.63;;;2.93;;
12511;SDS011;6321;53.798;10.382;2023-03-25T08:55:50;4.40;;;2.60;;
12511;SDS011;6321;53.798;10.382;2023-03-25T08:58:16;7.70;;;2.17;;
12511;SDS011;6321;53.798;10.382;2023-03-25T09:00:42;6.33;;;2.73;;
12511;SDS011;6321;53.798;10.382;2023-03-25T09:03:08;7.50;;;2.83;;
12511;SDS011;6321;53.798;10.382;2023-03-25T09:05:37;6.30;;;2.80;;
12511;SDS011;6321;53.798;10.382;2023-03-25T09:08:04;9.63;;;3.67;;
12511;SDS011;6321;53.798;10.382;2023-03-25T09:10:30;3.53;;;3.17;;
12511;SDS011;6321;53.798;10.382;2023-03-25T09:12:56;5.87;;;3.23;;
12511;SDS011;6321;53.798;10.382;2023-03-25T09:15:22;6.43;;;3.30;;
12511;SDS011;6321;53.798;10.382;2023-03-25T09:17:48;6.37;;;3.73;;
12511;SDS011;6321;53.798;10.382;2023-03-25T09:20:14;7.87;;;3.80;;
12511;SDS011;6321;53.798;10.382;2023-03-25T09:22:42;9.27;;;4.10;;
12511;SDS011;6321;53.798;10.382;2023-03-25T09:25:08;10.10;;;3.87;;
12511;SDS011;6321;53.798;10.382;2023-03-25T09:27:34;8.80;;;4.07;;
12511;SDS011;6321;53.798;10.382;2023-03-25T09:30:01;7.10;;;4.50;;
12511;SDS011;6321;53.798;10.382;2023-03-25T09:32:27;8.23;;;4.20;;
12511;SDS011;6321;53.798;10.382;2023-03-25T09:34:53;8.63;;;4.20;;
12511;SDS011;6321;53.798;10.382;2023-03-25T09:37:19;8.43;;;5.87;;
12511;SDS011;6321;53.798;10.382;2023-03-25T09:39:45;6.03;;;2.93;;
12511;SDS011;6321;53.798;10.382;2023-03-25T09:42:26;6.53;;;4.17;;
12511;SDS011;6321;53.798;10.382;2023-03-25T09:44:55;4.97;;;3.03;;
12511;SDS011;6321;53.798;10.382;2023-03-25T09:47:22;8.60;;;5.13;;
12511;SDS011;6321;53.798;10.382;2023-03-25T09:49:50;19.40;;;11.83;;
12511;SDS011;6321;53.798;10.382;2023-03-25T09:52:26;11.20;;;6.40;;
12511;SDS011;6321;53.798;10.382;2023-03-25T09:54:54;16.13;;;12.20;;
12511;SDS011;6321;53.798;10.382;2023-03-25T09:57:23;9.53;;;5.97;;
12511;SDS011;6321;53.798;10.382;2023-03-25T09:59:51;9.53;;;3.53;;
12511;SDS011;6321;53.798;10.382;2023-03-25T10:02:24;11.30;;;7.00;;
12511;SDS011;6321;53.798;10.382;2023-03-25T10:04:58;23.73;;;14.00;;
12511;SDS011;6321;53.798;10.382;2023-03-25T10:07:31;6.70;;;3.97;;
12511;SDS011;6321;53.798;10.382;2023-03-25T10:10:17;10.07;;;5.73;;
12511;SDS011;6321;53.798;10.382;2023-03-25T10:15:18;4.17;;;1.80;;
12511;SDS011;6321;53.798;10.382;2023-03-25T10:22:56;3.03;;;1.47;;
12511;SDS011;6321;53.798;10.382;2023-03-25T10:25:26;3.20;;;1.70;;
12511;SDS011;6321;53.798;10.382;2023-03-25T10:27:55;3.23;;;1.97;;
12511;SDS011;6321;53.798;10.382;2023-03-25T10:30:22;2.07;;;1.57;;
12511;SDS011;6321;53.798;10.382;2023-03-25T10:32:50;7.30;;;2.63;;
12511;SDS011;6321;53.798;10.382;2023-03-25T10:35:22;4.87;;;1.83;;
12511;SDS011;6321;53.798;10.382;2023-03-25T10:37:50;2.53;;;1.97;;
12511;SDS011;6321;53.798;10.382;2023-03-25T10:40:21;3.53;;;1.83;;
12511;SDS011;6321;53.798;10.382;2023-03-25T10:45:33;3.63;;;1.70;;
12511;SDS011;6321;53.798;10.382;2023-03-25T10:48:21;6.57;;;2.10;;
12511;SDS011;6321;53.798;10.382;2023-03-25T10:50:45;5.87;;;2.00;;
12511;SDS011;6321;53.798;10.382;2023-03-25T10:53:46;5.83;;;2.23;;
12511;SDS011;6321;53.798;10.382;2023-03-25T10:56:09;6.10;;;4.07;;
12511;SDS011;6321;53.798;10.382;2023-03-25T10:58:37;4.43;;;2.20;;
12511;SDS011;6321;53.798;10.382;2023-03-25T11:01:10;6.50;;;2.30;;
12511;SDS011;6321;53.798;10.382;2023-03-25T11:03:37;5.43;;;2.03;;
12511;SDS011;6321;53.798;10.382;2023-03-25T11:06:04;2.87;;;1.60;;
12511;SDS011;6321;53.798;10.382;2023-03-25T11:08:30;3.60;;;2.00;;
12511;SDS011;6321;53.798;10.382;2023-03-25T11:10:56;5.03;;;2.57;;
12511;SDS011;6321;53.798;10.382;2023-03-25T11:13:27;2.90;;;2.27;;
12511;SDS011;6321;53.798;10.382;2023-03-25T11:15:54;3.50;;;2.00;;
12511;SDS011;6321;53.798;10.382;2023-03-25T11:20:48;4.37;;;2.20;;
12511;SDS011;6321;53.798;10.382;2023-03-25T11:25:47;5.20;;;2.60;;
12511;SDS011;6321;53.798;10.382;2023-03-25T11:28:16;7.30;;;2.30;;
12511;SDS011;6321;53.798;10.382;2023-03-25T11:33:30;9.77;;;3.97;;
12511;SDS011;6321;53.798;10.382;2023-03-25T11:35:57;7.60;;;3.77;;
12511;SDS011;6321;53.798;10.382;2023-03-25T11:38:34;11.53;;;4.63;;
12511;SDS011;6321;53.798;10.382;2023-03-25T11:41:02;9.37;;;6.07;;
12511;SDS011;6321;53.798;10.382;2023-03-25T11:43:31;5.10;;;3.00;;
12511;SDS011;6321;53.798;10.382;2023-03-25T11:46:05;8.30;;;3.13;;
12511;SDS011;6321;53.798;10.382;2023-03-25T11:48:32;6.53;;;3.80;;
12511;SDS011;6321;53.798;10.382;2023-03-25T11:51:02;2.33;;;2.03;;
12511;SDS011;6321;53.798;10.382;2023-03-25T11:53:30;3.30;;;2.37;;
12511;SDS011;6321;53.798;10.382;2023-03-25T11:56:02;3.87;;;1.77;;
12511;SDS011;6321;53.798;10.382;2023-03-25T11:58:31;1.27;;;1.17;;
12511;SDS011;6321;53.798;10.382;2023-03-25T12:01:05;3.63;;;1.80;;
12511;SDS011;6321;53.798;10.382;2023-03-25T12:03:32;6.03;;;3.00;;
12511;SDS011;6321;53.798;10.382;2023-03-25T12:06:06;4.53;;;2.67;;
12511;SDS011;6321;53.798;10.382;2023-03-25T12:11:23;9.47;;;5.43;;
12511;SDS011;6321;53.798;10.382;2023-03-25T12:19:54;2.70;;;2.00;;
12511;SDS011;6321;53.798;10.382;2023-03-25T12:22:04;1.50;;;1.40;;
12511;SDS011;6321;53.798;10.382;2023-03-25T12:24:37;3.83;;;2.90;;
12511;SDS011;6321;53.798;10.382;2023-03-25T12:29:39;2.90;;;1.97;;
12511;SDS011;6321;53.798;10.382;2023-03-25T12:32:13;3.20;;;1.80;;
12511;SDS011;6321;53.798;10.382;2023-03-25T12:34:51;3.23;;;1.63;;
12511;SDS011;6321;53.798;10.382;2023-03-25T12:37:38;2.07;;;1.67;;
12511;SDS011;6321;53.798;10.382;2023-03-25T12:40:18;3.03;;;1.70;;
12511;SDS011;6321;53.798;10.382;2023-03-25T12:43:02;4.33;;;2.50;;
12511;SDS011;6321;53.798;10.382;2023-03-25T12:45:34;6.10;;;3.20;;
12511;SDS011;6321;53.798;10.382;2023-03-25T12:59:03;5.57;;;4.07;;
12511;SDS011;6321;53.798;10.382;2023-03-25T13:04:05;3.50;;;2.83;;
12511;SDS011;6321;53.798;10.382;2023-03-25T13:06:36;4.00;;;2.67;;
12511;SDS011;6321;53.798;10.382;2023-03-25T13:09:29;5.67;;;2.80;;
12511;SDS011;6321;53.798;10.382;2023-03-25T13:11:59;4.90;;;3.13;;
12511;SDS011;6321;53.798;10.382;2023-03-25T13:14:27;4.13;;;2.57;;
12511;SDS011;6321;53.798;10.382;2023-03-25T13:16:55;4.87;;;2.10;;
12511;SDS011;6321;53.798;10.382;2023-03-25T13:19:23;3.63;;;1.83;;
12511;SDS011;6321;53.798;10.382;2023-03-25T13:21:52;6.00;;;2.10;;
12511;SDS011;6321;53.798;10.382;2023-03-25T13:24:19;4.27;;;1.70;;
12511;SDS011;6321;53.798;10.382;2023-03-25T13:26:47;3.17;;;1.87;;
12511;SDS011;6321;53.798;10.382;2023-03-25T13:29:28;5.13;;;3.07;;
12511;SDS011;6321;53.798;10.382;2023-03-25T13:31:55;6.17;;;3.50;;
12511;SDS011;6321;53.798;10.382;2023-03-25T13:34:26;4.03;;;2.03;;
12511;SDS011;6321;53.798;10.382;2023-03-25T13:37:02;3.70;;;2.50;;
12511;SDS011;6321;53.798;10.382;2023-03-25T13:39:32;5.57;;;3.97;;
12511;SDS011;6321;53.798;10.382;2023-03-25T13:42:08;6.90;;;4.20;;
12511;SDS011;6321;53.798;10.382;2023-03-25T13:44:37;7.57;;;3.07;;
12511;SDS011;6321;53.798;10.382;2023-03-25T13:47:11;6.27;;;4.40;;
12511;SDS011;6321;53.798;10.382;2023-03-25T13:52:16;8.73;;;4.07;;
12511;SDS011;6321;53.798;10.382;2023-03-25T13:54:52;9.47;;;5.60;;
12511;SDS011;6321;53.798;10.382;2023-03-25T14:02:45;8.40;;;5.00;;
12511;SDS011;6321;53.798;10.382;2023-03-25T14:07:45;3.90;;;3.13;;
12511;SDS011;6321;53.798;10.382;2023-03-25T14:10:23;15.73;;;8.30;;
12511;SDS011;6321;53.798;10.382;2023-03-25T14:12:52;8.63;;;4.97;;
12511;SDS011;6321;53.798;10.382;2023-03-25T14:15:21;15.57;;;10.40;;
12511;SDS011;6321;53.798;10.382;2023-03-25T14:17:48;17.83;;;9.87;;
12511;SDS011;6321;53.798;10.382;2023-03-25T14:20:18;25.77;;;14.73;;
12511;SDS011;6321;53.798;10.382;2023-03-25T14:22:48;23.03;;;13.27;;
12511;SDS011;6321;53.798;10.382;2023-03-25T14:25:18;23.07;;;13.87;;
12511;SDS011;6321;53.798;10.382;2023-03-25T14:27:48;20.83;;;12.40;;
12511;SDS011;6321;53.798;10.382;2023-03-25T14:32:41;24.47;;;12.20;;
12511;SDS011;6321;53.798;10.382;2023-03-25T14:37:53;20.90;;;14.13;;
12511;SDS011;6321;53.798;10.382;2023-03-25T14:48:35;3.90;;;2.50;;
12511;SDS011;6321;53.798;10.382;2023-03-25T14:51:08;2.90;;;1.80;;
12511;SDS011;6321;53.798;10.382;2023-03-25T14:53:35;3.07;;;2.20;;
12511;SDS011;6321;53.798;10.382;2023-03-25T14:56:04;3.87;;;2.40;;
12511;SDS011;6321;53.798;10.382;2023-03-25T14:58:31;3.00;;;1.87;;
12511;SDS011;6321;53.798;10.382;2023-03-25T15:00:58;4.67;;;4.27;;
12511;SDS011;6321;53.798;10.382;2023-03-25T15:03:31;3.50;;;3.20;;
12511;SDS011;6321;53.798;10.382;2023-03-25T15:05:57;2.93;;;1.40;;
12511;SDS011;6321;53.798;10.382;2023-03-25T15:08:33;2.67;;;1.63;;
12511;SDS011;6321;53.798;10.382;2023-03-25T15:11:05;1.77;;;1.60;;
12511;SDS011;6321;53.798;10.382;2023-03-25T15:13:32;2.37;;;1.90;;
12511;SDS011;6321;53.798;10.382;2023-03-25T15:16:02;3.00;;;2.33;;
12511;SDS011;6321;53.798;10.382;2023-03-25T15:26:33;2.60;;;2.10;;
12511;SDS011;6321;53.798;10.382;2023-03-25T15:34:18;3.20;;;1.60;;
12511;SDS011;6321;53.798;10.382;2023-03-25T15:47:27;2.90;;;1.50;;
12511;SDS011;6321;53.798;10.382;2023-03-25T15:50:04;2.67;;;1.97;;
12511;SDS011;6321;53.798;10.382;2023-03-25T15:55:04;3.43;;;1.87;;
12511;SDS011;6321;53.798;10.382;2023-03-25T15:57:46;4.13;;;2.33;;
12511;SDS011;6321;53.798;10.382;2023-03-25T16:05:25;5.20;;;2.83;;
12511;SDS011;6321;53.798;10.382;2023-03-25T16:07:51;3.67;;;2.20;;
12511;SDS011;6321;53.798;10.382;2023-03-25T16:12:45;5.77;;;2.90;;
12511;SDS011;6321;53.798;10.382;2023-03-25T16:15:30;4.03;;;1.93;;
12511;SDS011;6321;53.798;10.382;2023-03-25T16:17:57;6.73;;;2.30;;
12511;SDS011;6321;53.798;10.382;2023-03-25T16:20:24;3.83;;;1.77;;
12511;SDS011;6321;53.798;10.382;2023-03-25T16:22:51;5.87;;;3.03;;
12511;SDS011;6321;53.798;10.382;2023-03-25T16:25:22;4.87;;;2.87;;
12511;SDS011;6321;53.798;10.382;2023-03-25T16:27:50;6.67;;;2.90;;
12511;SDS011;6321;53.798;10.382;2023-03-25T16:30:21;7.70;;;4.80;;
12511;SDS011;6321;53.798;10.382;2023-03-25T16:32:48;27.93;;;16.90;;
12511;SDS011;6321;53.798;10.382;2023-03-25T16:35:23;40.37;;;33.40;;
12511;SDS011;6321;53.798;10.382;2023-03-25T16:37:53;8.40;;;6.70;;
12511;SDS011;6321;53.798;10.382;2023-03-25T16:40:22;4.40;;;2.57;;
12511;SDS011;6321;53.798;10.382;2023-03-25T16:42:51;9.63;;;5.87;;
12511;SDS011;6321;53.798;10.382;2023-03-25T16:45:18;4.63;;;3.23;;
12511;SDS011;6321;53.798;10.382;2023-03-25T16:47:44;8.60;;;6.30;;
12511;SDS011;6321;53.798;10.382;2023-03-25T16:50:13;18.03;;;16.03;;
12511;SDS011;6321;53.798;10.382;2023-03-25T16:52:41;6.80;;;5.60;;
12511;SDS011;6321;53.798;10.382;2023-03-25T16:57:37;11.23;;;8.27;;
12511;SDS011;6321;53.798;10.382;2023-03-25T17:00:15;6.67;;;5.67;;
12511;SDS011;6321;53.798;10.382;2023-03-25T17:02:43;2.47;;;1.40;;
12511;SDS011;6321;53.798;10.382;2023-03-25T17:07:42;4.23;;;2.70;;
12511;SDS011;6321;53.798;10.382;2023-03-25T17:10:14;12.33;;;10.27;;
12511;SDS011;6321;53.798;10.382;2023-03-25T17:12:42;2.40;;;1.57;;